createdAt,value
2019-02-08T00:00:32.247Z,0
2019-02-08T00:03:30.804Z,0
2019-02-08T00:06:31.343Z,0
2019-02-08T00:09:31.028Z,0
2019-02-08T00:12:30.740Z,0
2019-02-08T00:15:31.366Z,0
2019-02-08T00:18:31.035Z,0
2019-02-08T00:21:31.450Z,0
2019-02-08T00:24:31.077Z,0
2019-02-08T00:27:30.716Z,0
2019-02-08T00:30:32.464Z,0
2019-02-08T00:33:31.052Z,0
2019-02-08T00:36:30.731Z,0
2019-02-08T00:39:31.143Z,0
2019-02-08T00:42:30.684Z,0
2019-02-08T00:45:31.268Z,0
2019-02-08T00:48:30.810Z,0
2019-02-08T00:51:30.696Z,0
2019-02-08T00:54:31.244Z,0
2019-02-08T00:57:30.715Z,0
2019-02-08T01:00:31.346Z,0
2019-02-08T01:03:31.105Z,0
2019-02-08T01:06:30.616Z,0
2019-02-08T01:09:31.342Z,0
2019-02-08T01:12:30.890Z,0
2019-02-08T01:15:31.206Z,0
2019-02-08T01:18:30.823Z,0
2019-02-08T01:21:30.428Z,0
2019-02-08T01:24:30.929Z,0
2019-02-08T01:27:30.364Z,0
2019-02-08T01:30:32.484Z,0
2019-02-08T01:33:30.870Z,0
2019-02-08T01:36:30.373Z,0
2019-02-08T01:39:30.808Z,0
2019-02-08T01:42:30.235Z,0
2019-02-08T01:45:33.904Z,0
2019-02-08T01:48:30.387Z,0
2019-02-08T01:51:30.978Z,0
2019-02-08T01:54:30.426Z,0
2019-02-08T01:57:30.984Z,0
2019-02-08T02:00:33.353Z,0
2019-02-08T02:03:30.783Z,0
2019-02-08T02:06:31.434Z,0
2019-02-08T02:09:30.930Z,0
2019-02-08T02:12:30.433Z,0
2019-02-08T02:15:31.251Z,0
2019-02-08T02:18:30.991Z,0
2019-02-08T02:21:30.625Z,0
2019-02-08T02:24:31.182Z,0
2019-02-08T02:27:30.630Z,0
2019-02-08T02:30:33.864Z,0
2019-02-08T02:33:30.476Z,0
2019-02-08T02:36:31.054Z,0
2019-02-08T02:39:30.733Z,0
2019-02-08T02:42:31.367Z,0
2019-02-08T02:45:33.891Z,0
2019-02-08T02:48:30.554Z,0
2019-02-08T02:51:31.289Z,0
2019-02-08T02:54:31.070Z,0
2019-02-08T02:57:30.726Z,0
2019-02-08T03:00:39.772Z,0
2019-02-08T03:03:31.519Z,0
2019-02-08T03:06:30.990Z,0
2019-02-08T03:09:30.602Z,0
2019-02-08T03:12:31.279Z,0
2019-02-08T03:15:31.122Z,0
2019-02-08T03:18:30.601Z,0
2019-02-08T03:21:31.083Z,0
2019-02-08T03:24:30.502Z,0
2019-02-08T03:27:31.181Z,0
2019-02-08T03:30:36.629Z,0
2019-02-08T03:33:31.528Z,0
2019-02-08T03:36:31.102Z,0
2019-02-08T03:39:30.680Z,0
2019-02-08T03:42:31.221Z,0
2019-02-08T03:45:32.825Z,0
2019-02-08T03:48:30.755Z,0
2019-02-08T03:51:31.280Z,0
2019-02-08T03:54:37.317Z,0
2019-02-08T03:57:31.027Z,0
2019-02-08T04:00:35.992Z,0
2019-02-08T04:03:30.785Z,0
2019-02-08T04:06:30.318Z,0
2019-02-08T04:09:31.031Z,0
2019-02-08T04:12:30.645Z,0
2019-02-08T04:15:31.432Z,0
2019-02-08T04:18:31.248Z,0
2019-02-08T04:21:30.779Z,0
2019-02-08T04:24:32.616Z,0
2019-02-08T04:27:31.388Z,0
2019-02-08T04:30:32.495Z,0
2019-02-08T04:33:31.285Z,0
2019-02-08T04:36:31.148Z,0
2019-02-08T04:39:30.680Z,0
2019-02-08T04:42:31.411Z,0
2019-02-08T04:45:32.358Z,0
2019-02-08T04:48:30.992Z,0
2019-02-08T04:51:30.649Z,0
2019-02-08T04:54:38.211Z,0
2019-02-08T04:57:31.320Z,0
2019-02-08T05:00:34.356Z,0
2019-02-08T05:03:30.858Z,0
2019-02-08T05:06:30.323Z,0
2019-02-08T05:09:30.907Z,0
2019-02-08T05:12:30.266Z,0
2019-02-08T05:15:30.801Z,0
2019-02-08T05:18:30.435Z,0
2019-02-08T05:21:31.125Z,0
2019-02-08T05:24:30.708Z,0
2019-02-08T05:27:31.052Z,0
2019-02-08T05:30:33.160Z,0
2019-02-08T05:33:30.867Z,0
2019-02-08T05:36:30.545Z,0
2019-02-08T05:39:31.116Z,0
2019-02-08T05:42:30.630Z,0
2019-02-08T05:45:31.069Z,0
2019-02-08T05:48:30.961Z,0
2019-02-08T05:51:30.571Z,0
2019-02-08T05:54:31.165Z,0
2019-02-08T05:57:32.109Z,0
2019-02-08T06:00:38.945Z,0
2019-02-08T06:03:31.377Z,0
2019-02-08T06:06:31.558Z,0
2019-02-08T06:09:31.275Z,0
2019-02-08T06:12:36.284Z,0
2019-02-08T06:15:31.241Z,0
2019-02-08T06:18:31.027Z,0
2019-02-08T06:21:30.842Z,0
2019-02-08T06:24:30.562Z,0
2019-02-08T06:27:31.329Z,1
2019-02-08T06:30:31.148Z,1
2019-02-08T06:33:30.832Z,2
2019-02-08T06:36:30.775Z,3
2019-02-08T06:39:31.517Z,6
2019-02-08T06:42:31.297Z,15
2019-02-08T06:45:31.661Z,22
2019-02-08T06:48:31.314Z,30
2019-02-08T06:51:31.166Z,48
2019-02-08T06:54:30.704Z,69
2019-02-08T06:57:37.591Z,85
2019-02-08T07:01:14.229Z,107
2019-02-08T07:03:46.385Z,136
2019-02-08T07:07:41.835Z,172
2019-02-08T07:09:40.570Z,202
2019-02-08T07:12:46.562Z,226
2019-02-08T07:15:57.574Z,265
2019-02-08T07:18:53.049Z,281
2019-02-08T07:21:52.252Z,355
2019-02-08T07:24:53.013Z,468
2019-02-08T07:27:52.191Z,503
2019-02-08T07:30:45.646Z,546
2019-02-08T07:33:39.561Z,576
2019-02-08T07:37:12.051Z,602
2019-02-08T07:40:37.887Z,512
2019-02-08T07:42:42.311Z,548
2019-02-08T07:45:51.324Z,660
2019-02-08T07:48:48.504Z,699
2019-02-08T07:51:46.502Z,925
2019-02-08T07:55:28.673Z,935
2019-02-08T07:58:09.536Z,946
2019-02-08T08:00:44.309Z,1139
2019-02-08T08:03:39.594Z,1084
2019-02-08T08:06:46.615Z,1427
2019-02-08T08:09:45.262Z,1919
2019-02-08T08:13:11.273Z,2259
2019-02-08T08:16:34.886Z,1880
2019-02-08T08:20:41.072Z,2130
2019-02-08T08:21:42.551Z,1900
2019-02-08T08:24:43.270Z,1891
2019-02-08T08:27:38.921Z,1933
2019-02-08T08:30:39.458Z,1867
2019-02-08T08:33:44.811Z,2200
2019-02-08T08:38:56.259Z,2090
2019-02-08T08:41:24.907Z,2818
2019-02-08T08:42:56.543Z,2365
2019-02-08T08:45:44.304Z,2227
2019-02-08T08:50:42.815Z,2286
2019-02-08T08:51:58.504Z,3339
2019-02-08T08:56:51.537Z,2431
2019-02-08T08:57:44.872Z,2722
2019-02-08T09:02:40.043Z,2715
2019-02-08T09:03:45.077Z,3692
2019-02-08T09:06:46.148Z,3702
2019-02-08T09:11:47.475Z,3608
2019-02-08T09:13:17.570Z,4599
2019-02-08T09:15:57.794Z,2955
2019-02-08T09:21:05.545Z,2760
2019-02-08T09:22:19.452Z,1688
2019-02-08T09:24:51.969Z,1958
2019-02-08T09:27:43.223Z,2527
2019-02-08T09:30:48.347Z,2727
2019-02-08T09:34:26.936Z,2617
2019-02-08T09:37:03.666Z,3067
2019-02-08T09:39:58.257Z,3772
2019-02-08T09:43:19.798Z,3835
2019-02-08T09:45:49.513Z,3399
2019-02-08T09:50:52.643Z,4443
2019-02-08T09:54:27.743Z,4475
2019-02-08T09:54:50.122Z,7276
2019-02-08T09:57:52.829Z,7460
2019-02-08T10:01:06.951Z,7120
2019-02-08T10:05:58.645Z,6557
2019-02-08T10:09:59.577Z,6522
2019-02-08T10:11:42.091Z,5933
2019-02-08T10:14:41.359Z,5917
2019-02-08T10:17:06.113Z,5232
2019-02-08T10:19:29.501Z,5021
2019-02-08T10:24:19.426Z,4932
2019-02-08T10:26:42.862Z,3607
2019-02-08T10:29:52.377Z,4026
2019-02-08T10:31:51.741Z,4617
2019-02-08T10:33:58.792Z,5380
2019-02-08T10:39:00.222Z,4168
2019-02-08T10:41:39.399Z,5013
2019-02-08T10:43:08.865Z,6914
2019-02-08T10:46:42.131Z,6453
2019-02-08T10:51:02.253Z,5780
2019-02-08T10:54:11.585Z,7547
2019-02-08T10:56:40.566Z,4742
2019-02-08T10:58:10.797Z,5482
2019-02-08T11:01:18.505Z,4738
2019-02-08T11:03:55.355Z,9551
2019-02-08T11:07:57.458Z,8058
2019-02-08T11:12:27.173Z,14756
2019-02-08T11:15:11.184Z,9165
2019-02-08T11:17:40.009Z,8155
2019-02-08T11:18:40.312Z,7652
2019-02-08T11:21:31.206Z,6132
2019-02-08T11:24:31.679Z,6504
2019-02-08T11:27:31.373Z,9046
2019-02-08T11:30:31.181Z,8896
2019-02-08T11:33:31.100Z,10835
2019-02-08T11:36:30.993Z,10493
2019-02-08T11:39:31.952Z,9973
2019-02-08T11:42:30.757Z,10170
2019-02-08T11:45:37.374Z,7917
2019-02-08T11:48:31.198Z,7534
2019-02-08T11:51:31.189Z,7188
2019-02-08T11:54:30.928Z,6889
2019-02-08T11:57:30.587Z,6611
2019-02-08T12:00:39.906Z,4858
2019-02-08T12:03:31.046Z,5928
2019-02-08T12:06:30.723Z,4901
2019-02-08T12:09:31.614Z,4076
2019-02-08T12:12:31.388Z,3358
2019-02-08T12:15:31.272Z,3596
2019-02-08T12:18:31.359Z,4146
2019-02-08T12:21:31.322Z,5450
2019-02-08T12:24:31.114Z,5107
2019-02-08T12:27:30.850Z,5230
2019-02-08T12:30:33.880Z,3406
2019-02-08T12:33:30.959Z,2850
2019-02-08T12:36:32.395Z,2611
2019-02-08T12:39:31.071Z,3103
2019-02-08T12:42:30.723Z,4755
2019-02-08T12:45:31.514Z,6323
2019-02-08T12:48:31.310Z,6050
2019-02-08T12:51:31.116Z,5798
2019-02-08T12:54:30.947Z,5711
2019-02-08T12:57:30.618Z,5116
2019-02-08T13:00:31.602Z,4882
2019-02-08T13:03:31.231Z,5618
2019-02-08T13:06:30.887Z,6428
2019-02-08T13:09:30.426Z,6880
2019-02-08T13:12:31.201Z,6299
2019-02-08T13:15:30.930Z,5841
2019-02-08T13:18:30.665Z,5733
2019-02-08T13:21:31.393Z,5418
2019-02-08T13:24:31.378Z,5356
2019-02-08T13:27:31.106Z,4891
2019-02-08T13:30:32.473Z,4183
2019-02-08T13:33:32.202Z,2708
2019-02-08T13:36:30.904Z,2932
2019-02-08T13:39:30.796Z,2946
2019-02-08T13:42:30.603Z,2218
2019-02-08T13:45:31.793Z,2128
2019-02-08T13:48:30.543Z,2228
2019-02-08T13:51:31.613Z,1539
2019-02-08T13:54:31.400Z,1392
2019-02-08T13:57:31.137Z,1472
2019-02-08T14:00:33.954Z,1631
2019-02-08T14:03:30.667Z,1658
2019-02-08T14:06:31.293Z,1283
2019-02-08T14:09:30.912Z,1431
2019-02-08T14:12:30.817Z,1922
2019-02-08T14:15:31.183Z,2418
2019-02-08T14:18:30.890Z,2472
2019-02-08T14:21:35.664Z,2089
2019-02-08T14:24:32.950Z,2108
2019-02-08T14:27:30.907Z,2185
2019-02-08T14:30:33.455Z,1822
2019-02-08T14:33:31.333Z,1977
2019-02-08T14:36:31.090Z,3060
2019-02-08T14:39:30.912Z,3462
2019-02-08T14:42:30.621Z,3047
2019-02-08T14:45:31.499Z,2785
2019-02-08T14:48:31.383Z,2325
2019-02-08T14:51:32.015Z,2069
2019-02-08T14:54:30.953Z,2002
2019-02-08T14:57:32.623Z,1839
2019-02-08T15:00:31.737Z,1561
2019-02-08T15:03:31.502Z,1673
2019-02-08T15:06:31.317Z,2138
2019-02-08T15:09:33.063Z,1502
2019-02-08T15:12:31.101Z,1469
2019-02-08T15:15:30.887Z,933
2019-02-08T15:18:30.830Z,689
2019-02-08T15:21:30.609Z,614
2019-02-08T15:24:31.270Z,686
2019-02-08T15:27:31.082Z,741
2019-02-08T15:30:33.250Z,733
2019-02-08T15:33:31.201Z,620
2019-02-08T15:36:30.955Z,506
2019-02-08T15:39:30.802Z,423
2019-02-08T15:42:30.841Z,324
2019-02-08T15:46:24.408Z,362
2019-02-08T15:50:32.797Z,364
2019-02-08T15:51:35.559Z,322
2019-02-08T15:54:39.577Z,236
2019-02-08T15:57:35.180Z,312
2019-02-08T16:00:33.525Z,338
2019-02-08T16:03:31.113Z,235
2019-02-08T16:06:30.950Z,295
2019-02-08T16:09:30.835Z,338
2019-02-08T16:12:30.532Z,356
2019-02-08T16:15:37.581Z,342
2019-02-08T16:18:31.216Z,282
2019-02-08T16:21:30.838Z,239
2019-02-08T16:24:30.807Z,187
2019-02-08T16:27:30.849Z,141
2019-02-08T16:30:32.483Z,108
2019-02-08T16:33:31.342Z,78
2019-02-08T16:36:31.085Z,60
2019-02-08T16:39:30.977Z,44
2019-02-08T16:42:30.531Z,31
2019-02-08T16:45:33.277Z,22
2019-02-08T16:48:30.829Z,16
2019-02-08T16:51:30.775Z,10
2019-02-08T16:54:30.316Z,6
2019-02-08T16:57:30.999Z,3
2019-02-08T17:00:32.738Z,2
2019-02-08T17:03:31.198Z,1
2019-02-08T17:06:42.891Z,1
2019-02-08T17:09:30.440Z,0
2019-02-08T17:12:31.107Z,0
2019-02-08T17:15:31.923Z,0
2019-02-08T17:18:30.613Z,0
2019-02-08T17:21:31.239Z,0
2019-02-08T17:24:30.835Z,0
2019-02-08T17:27:30.692Z,0
2019-02-08T17:30:31.508Z,0
2019-02-08T17:33:31.955Z,0
2019-02-08T17:36:30.826Z,0
2019-02-08T17:39:30.608Z,0
2019-02-08T17:42:31.307Z,0
2019-02-08T17:45:31.081Z,0
2019-02-08T17:48:30.687Z,0
2019-02-08T17:51:32.249Z,0
2019-02-08T17:54:31.081Z,0
2019-02-08T17:57:31.041Z,0
2019-02-08T18:00:39.870Z,0
2019-02-08T18:03:43.466Z,0
2019-02-08T18:06:35.769Z,0
2019-02-08T18:09:30.463Z,0
2019-02-08T18:12:34.925Z,0
2019-02-08T18:15:30.727Z,0
2019-02-08T18:18:30.982Z,0
2019-02-08T18:21:30.779Z,0
2019-02-08T18:24:30.408Z,0
2019-02-08T18:27:31.033Z,0
2019-02-08T18:30:31.244Z,0
2019-02-08T18:33:44.813Z,0
2019-02-08T18:36:39.040Z,0
2019-02-08T18:39:39.991Z,0
2019-02-08T18:42:33.228Z,0
2019-02-08T18:45:35.264Z,0
2019-02-08T18:48:35.072Z,0
2019-02-08T18:51:35.666Z,0
2019-02-08T18:58:27.592Z,0
2019-02-08T19:00:58.558Z,0
2019-02-08T19:06:30.834Z,0
2019-02-08T19:09:30.536Z,0
2019-02-08T19:12:31.371Z,0
2019-02-08T19:15:31.036Z,0
2019-02-08T19:18:30.822Z,0
2019-02-08T19:21:30.590Z,0
2019-02-08T19:24:31.459Z,0
2019-02-08T19:27:36.427Z,0
2019-02-08T19:30:34.715Z,0
2019-02-08T19:33:31.472Z,0
2019-02-08T19:36:32.189Z,0
2019-02-08T19:39:31.076Z,0
2019-02-08T19:42:31.274Z,0
2019-02-08T19:45:31.138Z,0
2019-02-08T19:48:30.825Z,0
2019-02-08T19:51:30.793Z,0
2019-02-08T19:54:30.664Z,0
2019-02-08T19:57:31.428Z,0
2019-02-08T20:00:33.595Z,0
2019-02-08T20:03:31.498Z,0
2019-02-08T20:06:31.390Z,0
2019-02-08T20:09:35.103Z,0
2019-02-08T20:12:31.087Z,0
2019-02-08T20:15:31.518Z,0
2019-02-08T20:18:31.194Z,0
2019-02-08T20:21:31.080Z,0
2019-02-08T20:24:30.795Z,0
2019-02-08T20:27:30.571Z,0
2019-02-08T20:30:31.909Z,0
2019-02-08T20:33:30.530Z,0
2019-02-08T20:36:31.132Z,0
2019-02-08T20:39:30.841Z,0
2019-02-08T20:42:30.527Z,0
2019-02-08T20:45:33.039Z,0
2019-02-08T20:48:30.788Z,0
2019-02-08T20:51:30.721Z,0
2019-02-08T20:54:31.586Z,0
2019-02-08T20:57:31.225Z,0
2019-02-08T21:00:37.133Z,0
2019-02-08T21:03:30.980Z,0
2019-02-08T21:06:31.278Z,0
2019-02-08T21:09:31.104Z,0
2019-02-08T21:12:30.768Z,0
2019-02-08T21:15:31.547Z,0
2019-02-08T21:18:31.406Z,0
2019-02-08T21:21:31.051Z,0
2019-02-08T21:24:30.867Z,0
2019-02-08T21:27:30.381Z,0
2019-02-08T21:30:31.577Z,0
2019-02-08T21:33:31.479Z,0
2019-02-08T21:36:38.642Z,0
2019-02-08T21:39:30.904Z,0
2019-02-08T21:42:32.025Z,0
2019-02-08T21:45:34.226Z,0
2019-02-08T21:48:30.914Z,0
2019-02-08T21:51:30.676Z,0
2019-02-08T21:54:32.089Z,0
2019-02-08T21:57:31.029Z,0
2019-02-08T22:00:32.688Z,0
2019-02-08T22:03:31.173Z,0
2019-02-08T22:06:30.751Z,0
2019-02-08T22:09:31.440Z,0
2019-02-08T22:12:31.322Z,0
2019-02-08T22:15:33.343Z,0
2019-02-08T22:18:31.110Z,0
2019-02-08T22:21:30.782Z,0
2019-02-08T22:24:31.266Z,0
2019-02-08T22:27:31.459Z,0
2019-02-08T22:30:31.015Z,0
2019-02-08T22:33:30.604Z,0
2019-02-08T22:36:31.212Z,0
2019-02-08T22:39:30.923Z,0
2019-02-08T22:42:30.699Z,0
2019-02-08T22:45:36.805Z,0
2019-02-08T22:48:30.560Z,0
2019-02-08T22:51:31.451Z,0
2019-02-08T22:54:31.331Z,0
2019-02-08T22:57:31.080Z,0
2019-02-08T23:01:31.851Z,0
2019-02-08T23:03:30.705Z,0
2019-02-08T23:06:31.520Z,0
2019-02-08T23:09:36.326Z,0
2019-02-08T23:12:36.086Z,0
2019-02-08T23:15:31.135Z,0
2019-02-08T23:18:30.959Z,0
2019-02-08T23:21:30.758Z,0
2019-02-08T23:24:31.447Z,0
2019-02-08T23:27:31.061Z,0
2019-02-08T23:31:22.609Z,0
2019-02-08T23:33:36.981Z,0
2019-02-08T23:36:32.809Z,0
2019-02-08T23:42:33.007Z,0
2019-02-08T23:47:30.857Z,0
2019-02-08T23:48:52.111Z,0
2019-02-08T23:51:50.297Z,0
2019-02-08T23:57:33.155Z,0
